createdAt,value
2023-03-08T00:01:22.590Z,15.34
2023-03-08T00:03:58.114Z,15.33
2023-03-08T00:06:27.574Z,15.65
2023-03-08T00:09:00.161Z,15.71
2023-03-08T00:11:29.189Z,15.41
2023-03-08T00:13:58.089Z,15.19
2023-03-08T00:16:26.027Z,15.46
2023-03-08T00:18:54.471Z,15.72
2023-03-08T00:21:22.567Z,15.81
2023-03-08T00:23:53.926Z,15.84
2023-03-08T00:26:22.393Z,16.23
2023-03-08T00:28:50.562Z,15.81
2023-03-08T00:31:18.809Z,16.57
2023-03-08T00:33:46.824Z,16.57
2023-03-08T00:36:17.431Z,15.81
2023-03-08T00:38:46.801Z,16.35
2023-03-08T00:41:15.504Z,16.11
2023-03-08T00:43:43.502Z,16.58
2023-03-08T00:46:12.364Z,15.81
2023-03-08T00:48:40.819Z,16.21
2023-03-08T00:51:14.579Z,15.82
2023-03-08T00:53:43.222Z,14.85
2023-03-08T00:56:11.679Z,15.82
2023-03-08T00:58:41.661Z,16.23
2023-03-08T01:01:18.090Z,15.25
2023-03-08T01:03:48.553Z,15.75
2023-03-08T01:06:17.027Z,15.52
2023-03-08T01:08:45.184Z,15.73
2023-03-08T01:11:36.694Z,16.08
2023-03-08T01:14:08.155Z,15.13
2023-03-08T01:16:37.155Z,15.80
2023-03-08T01:19:05.600Z,15.76
2023-03-08T01:21:33.501Z,15.12
2023-03-08T01:24:01.473Z,14.94
2023-03-08T01:26:29.613Z,15.91
2023-03-08T01:28:58.412Z,15.87
2023-03-08T01:31:29.692Z,15.59
2023-03-08T01:33:58.975Z,15.73
2023-03-08T01:36:28.217Z,15.53
2023-03-08T01:38:56.466Z,16.56
2023-03-08T01:41:30.630Z,16.57
2023-03-08T01:43:58.637Z,16.66
2023-03-08T01:46:35.362Z,16.61
2023-03-08T01:49:24.256Z,16.58
2023-03-08T01:52:03.889Z,17.90
2023-03-08T01:54:39.177Z,17.54
2023-03-08T01:57:14.094Z,17.84
2023-03-08T01:59:43.061Z,17.90
2023-03-08T02:02:11.260Z,17.24
2023-03-08T02:04:40.826Z,17.52
2023-03-08T02:07:12.252Z,17.46
2023-03-08T02:09:41.459Z,17.38
2023-03-08T02:12:13.140Z,17.74
2023-03-08T02:14:43.183Z,18.93
2023-03-08T02:17:12.034Z,18.64
2023-03-08T02:19:46.062Z,17.87
2023-03-08T02:22:16.140Z,18.44
2023-03-08T02:24:44.328Z,18.63
2023-03-08T02:27:24.159Z,18.78
2023-03-08T02:29:52.757Z,19.25
2023-03-08T02:32:20.699Z,19.19
2023-03-08T02:34:49.667Z,19.40
2023-03-08T02:37:17.871Z,18.41
2023-03-08T02:39:48.702Z,19.33
2023-03-08T02:42:16.619Z,19.86
2023-03-08T02:44:44.589Z,19.42
2023-03-08T02:47:12.545Z,18.94
2023-03-08T02:49:40.439Z,20.12
2023-03-08T02:52:10.054Z,19.63
2023-03-08T02:54:38.156Z,19.35
2023-03-08T02:57:06.005Z,20.06
2023-03-08T02:59:35.889Z,20.52
2023-03-08T03:02:04.392Z,20.16
2023-03-08T03:04:33.586Z,19.76
2023-03-08T03:07:01.706Z,20.50
2023-03-08T03:09:31.721Z,20.38
2023-03-08T03:11:59.662Z,19.71
2023-03-08T03:14:28.475Z,19.81
2023-03-08T03:16:59.201Z,19.75
2023-03-08T03:19:27.386Z,20.24
2023-03-08T03:21:55.619Z,19.28
2023-03-08T03:24:23.565Z,19.59
2023-03-08T03:26:55.467Z,20.35
2023-03-08T03:29:25.882Z,19.78
2023-03-08T03:32:01.629Z,19.66
2023-03-08T03:34:29.943Z,19.65
2023-03-08T03:36:58.021Z,19.86
2023-03-08T03:39:25.968Z,20.22
2023-03-08T03:41:54.405Z,19.28
2023-03-08T03:44:22.371Z,20.06
2023-03-08T03:46:50.383Z,19.87
2023-03-08T03:49:23.662Z,19.40
2023-03-08T03:51:51.542Z,19.88
2023-03-08T03:54:24.623Z,20.19
2023-03-08T03:56:53.256Z,21.34
2023-03-08T03:59:26.662Z,20.31
2023-03-08T04:01:55.115Z,19.78
2023-03-08T04:04:27.755Z,20.73
2023-03-08T04:06:56.235Z,20.34
2023-03-08T04:09:28.220Z,19.82
2023-03-08T04:12:08.101Z,20.46
2023-03-08T04:14:37.516Z,20.54
2023-03-08T04:17:06.306Z,20.50
2023-03-08T04:19:41.056Z,20.10
2023-03-08T04:22:09.924Z,20.13
2023-03-08T04:24:45.020Z,20.31
2023-03-08T04:27:17.943Z,20.16
2023-03-08T04:29:46.024Z,20.02
2023-03-08T04:32:14.450Z,20.62
2023-03-08T04:34:47.493Z,20.91
2023-03-08T04:37:18.307Z,20.67
2023-03-08T04:39:50.143Z,20.75
2023-03-08T04:42:18.701Z,20.84
2023-03-08T04:44:47.808Z,20.79
2023-03-08T04:47:19.967Z,20.56
2023-03-08T04:49:48.028Z,21.61
2023-03-08T04:52:16.065Z,20.79
2023-03-08T04:54:45.070Z,26.95
2023-03-08T04:57:23.217Z,22.67
2023-03-08T04:59:54.103Z,23.95
2023-03-08T05:02:24.240Z,21.99
2023-03-08T05:04:52.316Z,20.82
2023-03-08T05:07:21.190Z,20.75
2023-03-08T05:09:50.857Z,20.64
2023-03-08T05:12:18.956Z,20.05
2023-03-08T05:14:57.243Z,20.57
2023-03-08T05:17:26.878Z,20.37
2023-03-08T05:19:54.948Z,20.13
2023-03-08T05:22:28.398Z,21.06
2023-03-08T05:24:58.696Z,21.56
2023-03-08T05:27:27.751Z,21.73
2023-03-08T05:29:56.433Z,22.29
2023-03-08T05:32:24.424Z,21.55
2023-03-08T05:34:53.696Z,21.28
2023-03-08T05:37:32.461Z,22.16
2023-03-08T05:40:06.357Z,23.10
2023-03-08T05:42:36.913Z,22.51
2023-03-08T05:45:05.164Z,22.75
2023-03-08T05:47:37.159Z,22.79
2023-03-08T05:50:09.556Z,22.55
2023-03-08T05:52:42.581Z,22.93
2023-03-08T05:55:13.522Z,22.92
2023-03-08T05:57:42.562Z,23.24
2023-03-08T06:00:11.525Z,24.98
2023-03-08T06:02:50.782Z,27.68
2023-03-08T06:05:20.701Z,26.53
2023-03-08T06:07:50.311Z,25.32
2023-03-08T06:10:19.361Z,26.19
2023-03-08T06:12:47.407Z,25.38
2023-03-08T06:15:18.546Z,24.95
2023-03-08T06:17:46.455Z,25.20
2023-03-08T06:20:18.070Z,24.70
2023-03-08T06:22:49.251Z,25.13
2023-03-08T06:25:18.015Z,24.02
2023-03-08T06:27:46.187Z,23.52
2023-03-08T06:30:25.035Z,24.00
2023-03-08T06:32:53.810Z,24.70
2023-03-08T06:35:21.678Z,25.98
2023-03-08T06:37:56.179Z,28.25
2023-03-08T06:40:24.105Z,27.05
2023-03-08T06:42:51.986Z,26.40
2023-03-08T06:45:19.899Z,25.96
2023-03-08T06:47:47.735Z,26.02
2023-03-08T06:50:15.592Z,28.12
2023-03-08T06:52:47.855Z,29.60
2023-03-08T06:55:18.882Z,29.33
2023-03-08T06:57:47.158Z,27.89
2023-03-08T07:00:15.697Z,26.04
2023-03-08T07:02:43.744Z,25.05
2023-03-08T07:05:11.616Z,24.80
2023-03-08T07:07:40.127Z,24.81
2023-03-08T07:10:10.945Z,24.34
2023-03-08T07:12:40.398Z,24.77
2023-03-08T07:15:08.828Z,23.57
2023-03-08T07:17:36.990Z,23.89
2023-03-08T07:20:05.733Z,24.07
2023-03-08T07:22:33.720Z,24.10
2023-03-08T07:25:01.655Z,24.11
2023-03-08T07:27:29.594Z,23.85
2023-03-08T07:29:57.753Z,23.38
2023-03-08T07:32:28.899Z,23.43
2023-03-08T07:34:57.613Z,22.66
2023-03-08T07:37:25.554Z,22.05
2023-03-08T07:39:53.496Z,22.35
2023-03-08T07:42:21.451Z,22.19
2023-03-08T07:44:55.453Z,22.53
2023-03-08T07:47:23.419Z,23.47
2023-03-08T07:49:51.326Z,22.85
2023-03-08T07:52:19.186Z,23.05
2023-03-08T07:54:47.144Z,23.03
2023-03-08T07:57:16.058Z,23.46
2023-03-08T07:59:44.131Z,23.93
2023-03-08T08:02:13.836Z,23.04
2023-03-08T08:04:42.041Z,25.95
2023-03-08T08:07:15.606Z,26.05
2023-03-08T08:09:43.692Z,21.96
2023-03-08T08:12:11.811Z,22.36
2023-03-08T08:14:39.723Z,25.07
2023-03-08T08:17:11.903Z,21.25
2023-03-08T08:19:39.881Z,20.86
2023-03-08T08:22:07.706Z,20.57
2023-03-08T08:24:35.886Z,20.71
2023-03-08T08:27:04.114Z,20.57
2023-03-08T08:29:31.983Z,19.97
2023-03-08T08:31:59.894Z,19.34
2023-03-08T08:34:28.077Z,18.79
2023-03-08T08:36:56.656Z,19.63
2023-03-08T08:39:24.836Z,19.26
2023-03-08T08:41:52.704Z,19.72
2023-03-08T08:44:20.591Z,20.06
2023-03-08T08:46:48.496Z,21.03
2023-03-08T08:49:16.475Z,20.55
2023-03-08T08:51:44.440Z,20.13
2023-03-08T08:54:12.335Z,19.94
2023-03-08T08:56:42.968Z,19.60
2023-03-08T08:59:12.467Z,19.30
2023-03-08T09:01:47.090Z,19.10
2023-03-08T09:04:16.835Z,20.02
2023-03-08T09:06:44.898Z,20.22
2023-03-08T09:09:12.837Z,18.81
2023-03-08T09:11:53.713Z,19.15
2023-03-08T09:14:22.929Z,18.02
2023-03-08T09:16:50.915Z,17.46
2023-03-08T09:19:18.944Z,16.39
2023-03-08T09:21:46.858Z,12.91
2023-03-08T09:24:14.840Z,12.16
2023-03-08T09:26:42.655Z,12.75
2023-03-08T09:29:11.286Z,13.48
2023-03-08T09:31:39.846Z,13.33
2023-03-08T09:34:10.395Z,12.97
2023-03-08T09:36:41.667Z,12.48
2023-03-08T09:39:11.993Z,12.05
2023-03-08T09:41:56.117Z,24.27
2023-03-08T09:44:55.716Z,39.10
2023-03-08T09:47:32.934Z,52.65
2023-03-08T09:50:09.251Z,53.76
2023-03-08T09:52:48.598Z,18.79
2023-03-08T09:55:28.381Z,18.38
2023-03-08T09:58:21.655Z,14.26
2023-03-08T10:00:49.702Z,14.59
2023-03-08T10:03:33.463Z,13.09
2023-03-08T10:06:27.025Z,12.48
2023-03-08T10:09:07.226Z,12.78
2023-03-08T10:11:54.545Z,12.45
2023-03-08T10:14:31.414Z,12.69
2023-03-08T10:17:05.363Z,12.66
2023-03-08T10:19:42.428Z,13.45
2023-03-08T10:22:42.529Z,12.71
2023-03-08T10:25:28.970Z,12.38
2023-03-08T10:27:59.064Z,12.45
2023-03-08T10:30:36.432Z,12.70
2023-03-08T10:33:08.677Z,12.65
2023-03-08T10:35:53.790Z,13.63
2023-03-08T10:38:22.705Z,14.25
2023-03-08T10:40:59.614Z,13.90
2023-03-08T10:43:35.078Z,13.34
2023-03-08T10:46:12.662Z,13.05
2023-03-08T10:48:40.633Z,13.26
2023-03-08T10:51:29.366Z,13.80
2023-03-08T10:54:00.003Z,13.20
2023-03-08T10:56:44.955Z,13.94
2023-03-08T10:59:33.469Z,13.24
2023-03-08T11:02:13.523Z,13.52
2023-03-08T11:05:01.690Z,13.23
2023-03-08T11:07:32.839Z,14.03
2023-03-08T11:10:12.548Z,14.05
2023-03-08T11:12:40.579Z,14.28
2023-03-08T11:15:19.589Z,14.19
2023-03-08T11:18:31.778Z,14.25
2023-03-08T11:21:10.414Z,14.05
2023-03-08T11:23:45.907Z,13.74
2023-03-08T11:26:28.797Z,13.76
2023-03-08T11:29:10.489Z,13.97
2023-03-08T11:31:57.039Z,12.87
2023-03-08T11:34:44.028Z,14.38
2023-03-08T11:37:36.848Z,15.89
2023-03-08T11:40:46.726Z,17.04
2023-03-08T11:43:23.551Z,17.21
2023-03-08T11:46:01.104Z,15.40
2023-03-08T11:48:37.953Z,14.40
2023-03-08T11:51:15.269Z,14.49
2023-03-08T11:53:58.726Z,14.86
2023-03-08T11:56:54.433Z,14.32
2023-03-08T12:00:00.918Z,13.68
2023-03-08T12:02:31.126Z,13.12
2023-03-08T12:05:02.178Z,13.08
2023-03-08T12:07:38.684Z,13.17
2023-03-08T12:10:09.657Z,13.90
2023-03-08T12:13:05.071Z,13.42
2023-03-08T12:15:38.006Z,13.19
2023-03-08T12:18:38.126Z,12.84
2023-03-08T12:21:14.698Z,12.93
2023-03-08T12:23:48.296Z,13.95
2023-03-08T12:26:54.269Z,14.18
2023-03-08T12:29:50.136Z,13.27
2023-03-08T12:32:20.072Z,13.27
2023-03-08T12:34:48.368Z,14.22
2023-03-08T12:37:22.309Z,14.30
2023-03-08T12:40:26.546Z,14.94
2023-03-08T12:43:26.859Z,14.41
2023-03-08T12:46:05.052Z,14.44
2023-03-08T12:48:44.337Z,14.85
2023-03-08T12:51:12.242Z,14.79
2023-03-08T12:53:41.223Z,15.09
2023-03-08T12:56:12.234Z,14.88
2023-03-08T12:58:48.060Z,14.22
2023-03-08T13:01:40.519Z,14.44
2023-03-08T13:04:40.322Z,14.84
2023-03-08T13:07:19.035Z,14.92
2023-03-08T13:09:55.150Z,13.05
2023-03-08T13:12:32.341Z,12.72
2023-03-08T13:15:13.634Z,12.68
2023-03-08T13:17:48.853Z,13.98
2023-03-08T13:20:29.035Z,12.74
2023-03-08T13:23:05.291Z,13.25
2023-03-08T13:25:52.343Z,12.73
2023-03-08T13:28:22.859Z,13.77
2023-03-08T13:30:57.250Z,12.94
2023-03-08T13:33:30.066Z,12.19
2023-03-08T13:36:06.273Z,12.93
2023-03-08T13:38:36.569Z,12.97
2023-03-08T13:41:04.796Z,13.38
2023-03-08T13:43:34.968Z,12.86
2023-03-08T13:46:06.353Z,13.04
2023-03-08T13:48:35.945Z,12.82
2023-03-08T13:51:04.238Z,12.96
2023-03-08T13:53:35.545Z,13.26
2023-03-08T13:56:06.006Z,13.42
2023-03-08T13:58:40.464Z,13.42
2023-03-08T14:01:18.784Z,12.67
2023-03-08T14:03:47.472Z,12.86
2023-03-08T14:06:29.837Z,13.21
2023-03-08T14:09:04.708Z,13.43
2023-03-08T14:11:35.329Z,13.42
2023-03-08T14:14:09.288Z,13.56
2023-03-08T14:16:41.881Z,13.36
2023-03-08T14:19:22.038Z,13.71
2023-03-08T14:21:54.552Z,13.31
2023-03-08T14:24:26.121Z,13.49
2023-03-08T14:27:25.134Z,13.48
2023-03-08T14:30:02.775Z,14.84
2023-03-08T14:32:35.806Z,14.31
2023-03-08T14:35:07.848Z,13.68
2023-03-08T14:37:35.772Z,14.46
2023-03-08T14:40:31.548Z,13.97
2023-03-08T14:43:02.998Z,14.60
2023-03-08T14:45:34.683Z,14.02
2023-03-08T14:48:28.397Z,14.37
2023-03-08T14:51:18.856Z,15.05
2023-03-08T14:54:05.886Z,15.41
2023-03-08T14:56:34.861Z,15.09
2023-03-08T14:59:05.433Z,14.47
2023-03-08T15:01:36.206Z,15.06
2023-03-08T15:04:06.982Z,14.75
2023-03-08T15:06:36.957Z,16.59
2023-03-08T15:09:07.977Z,14.47
2023-03-08T15:11:36.068Z,14.39
2023-03-08T15:14:04.396Z,19.09
2023-03-08T15:16:32.357Z,15.94
2023-03-08T15:19:00.467Z,15.59
2023-03-08T15:21:29.459Z,17.67
2023-03-08T15:23:58.244Z,15.74
2023-03-08T15:26:32.271Z,15.84
2023-03-08T15:29:03.962Z,15.84
2023-03-08T15:31:32.183Z,16.93
2023-03-08T15:34:01.559Z,15.59
2023-03-08T15:36:32.573Z,15.64
2023-03-08T15:39:01.394Z,15.56
2023-03-08T15:41:29.467Z,15.52
2023-03-08T15:43:57.372Z,16.17
2023-03-08T15:46:25.258Z,15.86
2023-03-08T15:48:53.174Z,16.15
2023-03-08T15:51:22.871Z,15.48
2023-03-08T15:53:50.793Z,17.38
2023-03-08T15:56:18.709Z,17.08
2023-03-08T15:58:46.565Z,16.90
2023-03-08T16:01:14.673Z,15.23
2023-03-08T16:03:42.688Z,15.26
2023-03-08T16:06:12.273Z,15.71
2023-03-08T16:08:40.985Z,15.40
2023-03-08T16:11:10.889Z,15.59
2023-03-08T16:13:38.967Z,15.61
2023-03-08T16:16:07.570Z,16.01
2023-03-08T16:18:37.130Z,15.72
2023-03-08T16:21:09.156Z,15.67
2023-03-08T16:23:39.198Z,16.22
2023-03-08T16:26:15.872Z,15.76
2023-03-08T16:28:46.516Z,15.93
2023-03-08T16:31:16.563Z,16.91
2023-03-08T16:33:44.603Z,16.13
2023-03-08T16:36:13.126Z,15.76
2023-03-08T16:38:41.594Z,15.75
2023-03-08T16:41:13.215Z,15.98
2023-03-08T16:43:47.690Z,16.62
2023-03-08T16:46:21.454Z,19.47
2023-03-08T16:48:53.441Z,17.66
2023-03-08T16:51:25.058Z,17.32
2023-03-08T16:53:54.099Z,17.67
2023-03-08T16:56:24.835Z,17.73
2023-03-08T16:58:54.362Z,18.20
2023-03-08T17:01:23.443Z,18.47
2023-03-08T17:03:51.986Z,19.58
2023-03-08T17:06:22.416Z,18.91
2023-03-08T17:08:50.590Z,21.07
2023-03-08T17:11:24.498Z,20.09
2023-03-08T17:13:55.489Z,20.03
2023-03-08T17:16:26.996Z,20.06
2023-03-08T17:18:56.614Z,19.92
2023-03-08T17:21:25.170Z,20.09
2023-03-08T17:23:53.675Z,29.75
2023-03-08T17:26:23.152Z,42.15
2023-03-08T17:28:52.987Z,31.02
2023-03-08T17:31:23.081Z,25.51
2023-03-08T17:33:51.326Z,21.56
2023-03-08T17:36:20.234Z,21.58
2023-03-08T17:38:48.341Z,24.12
2023-03-08T17:41:16.619Z,23.70
2023-03-08T17:43:44.712Z,20.22
2023-03-08T17:46:18.174Z,18.66
2023-03-08T17:48:46.698Z,18.39
2023-03-08T17:51:17.340Z,18.73
2023-03-08T17:53:45.737Z,18.84
2023-03-08T17:56:21.054Z,18.13
2023-03-08T17:58:49.624Z,18.67
2023-03-08T18:01:20.753Z,21.39
2023-03-08T18:03:48.895Z,21.32
2023-03-08T18:06:35.000Z,19.34
2023-03-08T18:09:06.724Z,19.05
2023-03-08T18:11:37.967Z,19.91
2023-03-08T18:14:07.803Z,18.57
2023-03-08T18:16:35.856Z,19.05
2023-03-08T18:19:05.474Z,19.44
2023-03-08T18:21:36.008Z,19.15
2023-03-08T18:24:05.183Z,19.28
2023-03-08T18:26:33.458Z,20.00
2023-03-08T18:29:01.566Z,20.07
2023-03-08T18:31:32.236Z,20.65
2023-03-08T18:34:00.167Z,20.47
2023-03-08T18:36:28.391Z,22.83
2023-03-08T18:38:57.660Z,27.58
2023-03-08T18:41:27.930Z,22.41
2023-03-08T18:43:58.383Z,21.86
2023-03-08T18:46:30.098Z,21.64
2023-03-08T18:49:11.300Z,20.52
2023-03-08T18:51:41.568Z,19.98
2023-03-08T18:54:15.967Z,20.97
2023-03-08T18:56:44.757Z,20.32
2023-03-08T18:59:14.046Z,20.66
2023-03-08T19:01:42.000Z,20.87
2023-03-08T19:04:10.568Z,19.37
2023-03-08T19:06:38.900Z,19.55
2023-03-08T19:09:15.846Z,20.07
2023-03-08T19:11:44.786Z,20.99
2023-03-08T19:14:13.118Z,26.28
2023-03-08T19:16:41.185Z,21.73
2023-03-08T19:19:12.176Z,19.98
2023-03-08T19:21:42.744Z,19.44
2023-03-08T19:24:15.739Z,19.75
2023-03-08T19:26:47.356Z,19.74
2023-03-08T19:29:23.681Z,19.65
2023-03-08T19:32:03.381Z,19.11
2023-03-08T19:34:34.863Z,21.67
2023-03-08T19:37:05.196Z,20.32
2023-03-08T19:39:36.813Z,21.56
2023-03-08T19:42:08.177Z,24.20
2023-03-08T19:44:36.601Z,22.95
2023-03-08T19:47:05.091Z,21.76
2023-03-08T19:49:36.281Z,21.45
2023-03-08T19:52:06.032Z,21.56
2023-03-08T19:54:34.535Z,22.51
2023-03-08T19:57:02.734Z,23.54
2023-03-08T19:59:31.013Z,24.59
2023-03-08T20:01:58.994Z,25.59
2023-03-08T20:04:27.061Z,25.54
2023-03-08T20:06:59.558Z,26.65
2023-03-08T20:09:27.737Z,26.35
2023-03-08T20:11:58.815Z,26.55
2023-03-08T20:14:27.843Z,25.15
2023-03-08T20:16:56.655Z,22.99
2023-03-08T20:19:24.850Z,24.23
2023-03-08T20:21:53.025Z,24.85
2023-03-08T20:24:23.253Z,25.54
2023-03-08T20:26:51.231Z,25.58
2023-03-08T20:29:19.398Z,24.76
2023-03-08T20:31:48.241Z,25.81
2023-03-08T20:34:17.434Z,25.51
2023-03-08T20:36:45.383Z,25.19
2023-03-08T20:39:13.409Z,25.62
2023-03-08T20:41:41.315Z,24.84
2023-03-08T20:44:11.039Z,24.56
2023-03-08T20:46:39.062Z,24.50
2023-03-08T20:49:06.950Z,26.66
2023-03-08T20:51:36.372Z,24.44
2023-03-08T20:54:06.126Z,21.11
2023-03-08T20:56:34.290Z,19.53
2023-03-08T20:59:02.482Z,19.41
2023-03-08T21:01:32.399Z,19.38
2023-03-08T21:04:01.035Z,19.20
2023-03-08T21:06:30.895Z,18.99
2023-03-08T21:08:59.822Z,18.47
2023-03-08T21:11:28.821Z,17.46
2023-03-08T21:13:57.022Z,17.50
2023-03-08T21:16:27.424Z,16.33
2023-03-08T21:18:57.607Z,14.81
2023-03-08T21:21:35.507Z,15.79
2023-03-08T21:24:11.338Z,16.32
2023-03-08T21:26:39.981Z,16.69
2023-03-08T21:29:12.209Z,16.93
2023-03-08T21:31:43.336Z,15.71
2023-03-08T21:34:12.825Z,14.77
2023-03-08T21:36:40.950Z,13.20
2023-03-08T21:39:10.038Z,10.75
2023-03-08T21:41:40.117Z,15.95
2023-03-08T21:44:12.594Z,19.71
2023-03-08T21:46:41.653Z,21.20
2023-03-08T21:49:21.732Z,20.92
2023-03-08T21:51:50.286Z,19.12
2023-03-08T21:54:18.741Z,17.82
2023-03-08T21:56:47.314Z,17.09
2023-03-08T21:59:16.745Z,16.85
2023-03-08T22:01:50.172Z,17.31
2023-03-08T22:04:18.194Z,16.63
2023-03-08T22:06:46.616Z,16.10
2023-03-08T22:09:14.595Z,15.52
2023-03-08T22:11:42.464Z,16.18
2023-03-08T22:14:10.823Z,15.78
2023-03-08T22:16:41.622Z,16.19
2023-03-08T22:19:10.174Z,15.34
2023-03-08T22:21:38.135Z,16.04
2023-03-08T22:24:06.178Z,15.69
2023-03-08T22:26:34.216Z,15.59
2023-03-08T22:29:02.065Z,15.01
2023-03-08T22:31:30.806Z,13.65
2023-03-08T22:33:59.054Z,13.35
2023-03-08T22:36:27.083Z,14.12
2023-03-08T22:38:54.945Z,13.92
2023-03-08T22:41:27.347Z,13.48
2023-03-08T22:43:55.410Z,13.30
2023-03-08T22:46:26.426Z,12.98
2023-03-08T22:48:56.536Z,12.11
2023-03-08T22:51:27.692Z,12.06
2023-03-08T22:53:56.241Z,11.50
2023-03-08T22:56:29.554Z,10.69
2023-03-08T22:58:58.288Z,10.40
2023-03-08T23:01:27.983Z,10.20
2023-03-08T23:03:58.024Z,10.42
2023-03-08T23:06:30.295Z,11.20
2023-03-08T23:09:06.269Z,10.81
2023-03-08T23:11:35.476Z,10.36
2023-03-08T23:14:04.095Z,10.47
2023-03-08T23:16:32.969Z,10.49
2023-03-08T23:19:00.980Z,10.67
2023-03-08T23:21:30.499Z,10.80
2023-03-08T23:23:58.468Z,10.84
2023-03-08T23:26:27.502Z,10.64
2023-03-08T23:28:57.771Z,10.40
2023-03-08T23:31:28.509Z,10.69
2023-03-08T23:33:57.123Z,10.45
2023-03-08T23:36:25.980Z,9.91
2023-03-08T23:38:55.210Z,10.25
2023-03-08T23:41:23.574Z,9.82
2023-03-08T23:43:59.476Z,9.28
2023-03-08T23:46:28.722Z,9.60
2023-03-08T23:48:58.129Z,9.13
2023-03-08T23:51:28.605Z,9.24
2023-03-08T23:53:59.567Z,9.31
2023-03-08T23:56:37.778Z,9.36
2023-03-08T23:59:21.148Z,8.86
